Haleiwa, Hawaii
Current Conditions -  °F | °C
As of 2:06 AM on Thursday 29 Jan 2015 (Local Time) from PHHI Reporting Station
Few Clouds Few Clouds  
Wind Chill: 68°   Ceiling: Unl
Heat Index: 68°   Visibility: 10mi
Dew Point: 66°   Wind: 1mph
Humidity: 94%   Direction: 110°ESE
Pressure: 29.91"   Gusts: NA
Location:  21.58°N, 158.1°W
Report Text: PHHI 291206Z AUTO 11001KT 10SM FEW014 20/19 A2991 RMK AO2 RAE1207DZB1203E1206 $
Loading
Personal Weather Stations






























Interactive Weather Map New forecast layout! Learn more

10-Day Weather Forecast

Advertisements
Track Severe Weather on mobile